KEAU

Chippewa Valley Regional Airport

Eau Claire, Wisconsin, USA
KEAU 211723Z 2118/2218 01012G20KT P6SM SCT040 FM220100 01007KT P6SM FEW070 SCT250 FM221700 04009KT P6SM SCT080
Issued Valid From Valid To
Jul-21 @ 17:23 UTC
(6 hours ago)
Jul-21 @ 18:00 UTC
(5 hours ago)
Jul-22 @ 18:00 UTC
(in 19 hours)
Jul-21 @ 18:00 to Jul-22 @ 01:00
KEAU 211723Z 2118/2218 01012G20KT P6SM SCT040
Wind Visibility Clouds
10° at 12 knots
 Gusting to 20 knots
Greater than 6 miles
  • Scattered at 4,000' AGL
From Jul-22 @ 01:00 to Jul-22 @ 17:00
FM220100 01007KT P6SM FEW070 SCT250
Wind Visibility Clouds
10° at 7 knots Greater than 6 miles
  • Few at 7,000' AGL
  • Scattered at 25,000' AGL
From Jul-22 @ 17:00 to Jul-22 @ 18:00
FM221700 04009KT P6SM SCT080
Wind Visibility Clouds
40° at 9 knots Greater than 6 miles
  • Scattered at 8,000' AGL
KEAU 211723Z 2118/2218 01012G20KT P6SM SCT040 FM220100 01007KT P6SM FEW070 SCT250 FM221700 04009KT P6SM SCT080
Issued Jul-21 @ 17:23 UTC
(6 hours ago)
Valid From Jul-21 @ 18:00 UTC
(5 hours ago)
Valid To Jul-22 @ 18:00 UTC
(in 19 hours)
Jul-21 @ 18:00 - Jul-22 @ 01:00
Wind Visibility
10° at 12 knots
 Gusting to 20 knots
Greater than 6 miles
Clouds
  • Scattered at 4,000' AGL
From Jul-22 @ 01:00 - Jul-22 @ 17:00
Wind Visibility
10° at 7 knots Greater than 6 miles
Clouds
  • Few at 7,000' AGL
  • Scattered at 25,000' AGL
From Jul-22 @ 17:00 - Jul-22 @ 18:00
Wind Visibility
40° at 9 knots Greater than 6 miles
Clouds
  • Scattered at 8,000' AGL